Ясюниха

Карта отелей и гостиниц, располагающихся рядом с аэропортом Ясюниха :

Ясюниха
Иваново
Ивановская область 56° 57' 49.9104" N, 41° 4' 21.5004" E
Код аэродрома ИКАО
XUDN
Код аэродрома RU
ЬУДН
Координаты
N56.96386° E041.07264°
Превышение над уровнем моря
123
Основная полоса
15/33
Курс магнитный
144,8/324,8
Длина основной ВПП
723
Ширина основной ВПП
45
Покрытие основной ВПП
Нетвёрдое (грунт)
Освещение ВПП
Нет
Тип: 
Аэродром
Класс аэродрома: 
Принадлежность: 
ДОСААФ
Статус: 
Действующий
Сайт: 
http://www.ivask.ru
E-mail аэродрома: 
ask-iva@mail.ru
Страна: 
Россия
Регион: 
Ивановская область
Город: 
Иваново
Дополнительная информация: 
Стоимость взл/пос.- 500 р. В течение дня - стоянка бесплатно. Охраняемая стоянка - 200 р./сутки. Оператор: Ивановский областной АСК ДОСААФ России. Администрация АД радушна и гостеприимна. Принимает активное участие в жизни АОН. Нкр.=(300-400)м. С МК=325° система посадки ОСП: ДПРС: 450-БЖ, БПРС: 705-Б.

Найти трансфер

С помощью этой формы Вы можете найти трансфер из аэропорта Ясюниха в город, аэропорт или вокзал:

Карта места

Javascript is required to view this map.

Погода в аэропортах:

Авиационная погода в Пулково

Регион: 
Погода METAR: 
ULLI 281300Z 04005MPS 3900 -SHSN SCT009 BKN018CB OVC036 M03/M04 Q1002 RESHSN R88/490535 NOSIG
Время наблюдения
2021-11-28T13:00:00Z
Температура C
-3.0
Точка росы
-4.0
Направление ветра
40
Скорость ветра (узлы)
10
Метео видимость
2.42
Явления погоды
-SHSN
Условия полета
IFR
Аэропорт подробнее: 

Авиационная погода в Москва - Внуково

Погода METAR: 
UUWW 281300Z 22006MPS 9999 -RA BKN007 OVC022 02/01 Q1005 R24/290050 TEMPO BKN004
Время наблюдения
2021-11-28T13:00:00Z
Температура C
2.0
Точка росы
1.0
Направление ветра
220
Скорость ветра (узлы)
12
Метео видимость
6.21
Явления погоды
-RA
Условия полета
IFR
Аэропорт подробнее: 

Авиационная погода в Курске

Погода METAR: 
UUOK 281300Z 18002MPS 160V240 5000 BR OVC011 07/06 Q1008 R30/290050 TEMPO 1500 BR RMK QFE737/0983
Время наблюдения
2021-11-28T13:00:00Z
Температура C
7.0
Точка росы
6.0
Направление ветра
180
Скорость ветра (узлы)
4
Метео видимость
3.11
Явления погоды
BR
Условия полета
MVFR
Аэропорт подробнее: 

Авиационная погода в Ужгороде

Регион: 
Погода METAR: 
UKLU 261930Z 10004MPS 080V150 6000 -RA OVC016 06/06 Q0993 TEMPO 2100 -RA BR BKN005 BKN015
Время наблюдения
2021-11-26T19:30:00Z
Температура C
6.0
Точка росы
6.0
Направление ветра
100
Скорость ветра (узлы)
8
Метео видимость
3.73
Явления погоды
-RA
Условия полета
MVFR
Аэропорт подробнее: